createdAt,value
2019-04-07T00:00:03.820Z,10.7
2019-04-07T00:01:18.126Z,10.6
2019-04-07T00:02:32.172Z,10.8
2019-04-07T00:03:46.361Z,10.8
2019-04-07T00:05:00.544Z,10.8
2019-04-07T00:06:14.746Z,10.7
2019-04-07T00:07:28.926Z,10.7
2019-04-07T00:08:43.114Z,10.7
2019-04-07T00:09:57.309Z,10.5
2019-04-07T00:11:11.473Z,10.5
2019-04-07T00:12:25.677Z,10.5
2019-04-07T00:13:39.957Z,10.4
2019-04-07T00:14:54.113Z,10.4
2019-04-07T00:16:08.254Z,10.3
2019-04-07T00:17:22.410Z,10.3
2019-04-07T00:18:36.607Z,10.3
2019-04-07T00:19:50.794Z,10.2
2019-04-07T00:21:05.084Z,10.3
2019-04-07T00:22:19.171Z,10.4
2019-04-07T00:23:34.784Z,10.4
2019-04-07T00:24:47.566Z,10.5
2019-04-07T00:26:01.745Z,10.6
2019-04-07T00:27:16.012Z,10.6
2019-04-07T00:28:30.150Z,10.5
2019-04-07T00:29:44.330Z,10.6
2019-04-07T00:30:58.480Z,10.6
2019-04-07T00:32:12.667Z,10.7
2019-04-07T00:33:26.932Z,10.5
2019-04-07T00:34:41.039Z,10.5
2019-04-07T00:35:55.251Z,10.5
2019-04-07T00:37:09.596Z,10.5
2019-04-07T00:38:23.634Z,10.4
2019-04-07T00:39:37.921Z,10.3
2019-04-07T00:40:53.157Z,10.2
2019-04-07T00:42:06.214Z,10.2
2019-04-07T00:43:20.379Z,10.1
2019-04-07T00:44:34.564Z,10
2019-04-07T00:45:48.788Z,10
2019-04-07T00:47:02.939Z,10.1
2019-04-07T00:48:17.163Z,10.1
2019-04-07T00:49:31.390Z,10.1
2019-04-07T00:50:45.596Z,10
2019-04-07T00:51:59.755Z,10
2019-04-07T00:53:13.920Z,9.9
2019-04-07T00:54:28.049Z,10
2019-04-07T00:55:42.355Z,10.1
2019-04-07T00:56:56.516Z,10
2019-04-07T00:58:10.692Z,10.1
2019-04-07T00:59:24.885Z,10.1
2019-04-07T01:00:38.969Z,10
2019-04-07T01:01:53.259Z,9.9
2019-04-07T01:03:07.353Z,9.8
2019-04-07T01:04:21.599Z,9.8
2019-04-07T01:05:35.726Z,9.8
2019-04-07T01:06:49.958Z,9.7
2019-04-07T01:08:04.199Z,9.7
2019-04-07T01:09:18.336Z,9.7
2019-04-07T01:10:32.600Z,9.6
2019-04-07T01:11:46.761Z,9.7
2019-04-07T01:13:00.898Z,9.7
2019-04-07T01:14:15.174Z,9.7
2019-04-07T01:15:29.261Z,9.8
2019-04-07T01:16:43.450Z,9.7
2019-04-07T01:17:57.663Z,9.7
2019-04-07T01:19:11.849Z,9.7
2019-04-07T01:20:26.098Z,9.7
2019-04-07T01:21:40.304Z,9.8
2019-04-07T01:22:54.428Z,9.8
2019-04-07T01:24:08.710Z,9.7
2019-04-07T01:25:22.793Z,9.6
2019-04-07T01:26:37.018Z,9.8
2019-04-07T01:27:51.301Z,9.7
2019-04-07T01:29:05.411Z,9.8
2019-04-07T01:30:19.625Z,9.7
2019-04-07T01:31:33.778Z,9.7
2019-04-07T01:32:47.951Z,9.6
2019-04-07T01:34:02.182Z,9.5
2019-04-07T01:35:16.457Z,9.3
2019-04-07T01:36:30.599Z,9.3
2019-04-07T01:37:44.749Z,9.2
2019-04-07T01:38:59.019Z,9.2
2019-04-07T01:40:13.287Z,9.2
2019-04-07T01:41:30.868Z,9.2
2019-04-07T01:42:41.541Z,9.2
2019-04-07T01:43:55.752Z,9.2
2019-04-07T01:45:10.073Z,9.2
2019-04-07T01:46:24.167Z,9.3
2019-04-07T01:47:38.338Z,9.2
2019-04-07T01:48:52.559Z,9.1
2019-04-07T01:50:06.738Z,9.1
2019-04-07T01:51:21.175Z,9.2
2019-04-07T01:52:35.367Z,9.2
2019-04-07T01:53:49.406Z,9.2
2019-04-07T01:55:03.512Z,9
2019-04-07T01:56:17.706Z,9
2019-04-07T01:57:31.949Z,9
2019-04-07T01:58:46.130Z,9
2019-04-07T02:00:01.553Z,9.1
2019-04-07T02:01:14.493Z,9
2019-04-07T02:02:28.700Z,9.1
2019-04-07T02:03:43.046Z,9.2
2019-04-07T02:04:57.077Z,9.2
2019-04-07T02:06:11.284Z,9.1
2019-04-07T02:07:25.443Z,9.2
2019-04-07T02:08:39.707Z,9.3
2019-04-07T02:09:53.844Z,9.3
2019-04-07T02:11:08.034Z,9.3
2019-04-07T02:12:22.257Z,9.3
2019-04-07T02:13:36.530Z,9.3
2019-04-07T02:14:50.746Z,9.3
2019-04-07T02:16:04.787Z,9.3
2019-04-07T02:17:18.978Z,9.3
2019-04-07T02:18:33.159Z,9.3
2019-04-07T02:19:47.355Z,9.3
2019-04-07T02:21:01.558Z,9.4
2019-04-07T02:22:15.776Z,9.3
2019-04-07T02:23:29.908Z,9.3
2019-04-07T02:24:44.584Z,9.3
2019-04-07T02:25:58.304Z,9.2
2019-04-07T02:27:12.493Z,9.3
2019-04-07T02:28:26.688Z,9.3
2019-04-07T02:29:41.006Z,9.2
2019-04-07T02:30:55.124Z,9.3
2019-04-07T02:32:09.313Z,9.3
2019-04-07T02:33:23.496Z,9.3
2019-04-07T02:34:37.673Z,9.3
2019-04-07T02:35:51.851Z,9.3
2019-04-07T02:38:20.464Z,9.1
2019-04-07T02:39:34.413Z,9.2
2019-04-07T02:40:48.623Z,9
2019-04-07T02:42:02.798Z,9.1
2019-04-07T02:43:17.015Z,9
2019-04-07T02:44:31.206Z,9
2019-04-07T02:45:45.385Z,9
2019-04-07T02:46:59.554Z,9
2019-04-07T02:48:13.745Z,9
2019-04-07T02:49:27.949Z,9
2019-04-07T02:50:42.132Z,9
2019-04-07T02:51:56.358Z,9
2019-04-07T02:53:10.605Z,9
2019-04-07T02:54:24.732Z,9
2019-04-07T02:55:38.916Z,8.9
2019-04-07T02:56:53.089Z,8.9
2019-04-07T02:58:07.292Z,8.7
2019-04-07T02:59:21.587Z,8.9
2019-04-07T03:00:35.770Z,8.8
2019-04-07T03:01:49.864Z,8.8
2019-04-07T03:03:04.051Z,8.8
2019-04-07T03:04:18.249Z,8.6
2019-04-07T03:05:32.448Z,8.5
2019-04-07T03:06:47.049Z,8.6
2019-04-07T03:08:00.892Z,8.6
2019-04-07T03:09:15.049Z,8.4
2019-04-07T03:10:29.224Z,8.5
2019-04-07T03:11:43.520Z,8.3
2019-04-07T03:12:57.618Z,8.4
2019-04-07T03:14:11.910Z,8.4
2019-04-07T03:15:26.040Z,8.5
2019-04-07T03:16:40.278Z,8.6
2019-04-07T03:17:54.421Z,8.6
2019-04-07T03:19:08.655Z,8.5
2019-04-07T03:20:22.930Z,8.6
2019-04-07T03:21:37.056Z,8.6
2019-04-07T03:22:51.383Z,8.6
2019-04-07T03:24:05.507Z,8.6
2019-04-07T03:25:22.490Z,8.5
2019-04-07T03:26:34.959Z,8.5
2019-04-07T03:27:48.056Z,8.5
2019-04-07T03:29:02.338Z,8.5
2019-04-07T03:30:16.469Z,8.5
2019-04-07T03:31:30.842Z,8.5
2019-04-07T03:32:44.847Z,8.6
2019-04-07T03:33:59.109Z,8.5
2019-04-07T03:35:13.309Z,8.5
2019-04-07T03:36:27.589Z,8.6
2019-04-07T03:37:41.738Z,8.6
2019-04-07T03:38:55.876Z,8.7
2019-04-07T03:40:10.121Z,8.6
2019-04-07T03:41:24.271Z,8.6
2019-04-07T03:42:38.573Z,8.5
2019-04-07T03:43:52.786Z,8.6
2019-04-07T03:45:06.876Z,8.5
2019-04-07T03:46:21.327Z,8.5
2019-04-07T03:47:35.381Z,8.4
2019-04-07T03:48:49.484Z,8.4
2019-04-07T03:50:03.682Z,8.4
2019-04-07T03:51:17.872Z,8.4
2019-04-07T03:52:32.082Z,8.3
2019-04-07T03:53:46.258Z,8.2
2019-04-07T03:55:00.490Z,8.3
2019-04-07T03:56:14.639Z,8.3
2019-04-07T03:57:28.913Z,8.2
2019-04-07T03:58:43.067Z,8.2
2019-04-07T03:59:57.338Z,8.2
2019-04-07T04:01:11.497Z,8.2
2019-04-07T04:02:25.636Z,8.2
2019-04-07T04:03:39.833Z,8.2
2019-04-07T04:04:54.028Z,8.1
2019-04-07T04:06:08.210Z,8.2
2019-04-07T04:07:22.531Z,8.1
2019-04-07T04:08:36.715Z,8
2019-04-07T04:09:50.918Z,8
2019-04-07T04:11:05.029Z,8
2019-04-07T04:12:19.338Z,7.9
2019-04-07T04:13:37.036Z,7.8
2019-04-07T04:14:47.731Z,7.9
2019-04-07T04:16:01.855Z,7.8
2019-04-07T04:17:16.083Z,7.9
2019-04-07T04:18:30.312Z,7.8
2019-04-07T04:19:44.459Z,7.7
2019-04-07T04:20:58.766Z,7.6
2019-04-07T04:22:12.887Z,7.6
2019-04-07T04:23:27.158Z,7.5
2019-04-07T04:24:41.399Z,7.7
2019-04-07T04:25:55.485Z,7.5
2019-04-07T04:27:09.705Z,7.5
2019-04-07T04:28:23.924Z,7.5
2019-04-07T04:29:38.120Z,7.5
2019-04-07T04:30:52.359Z,7.4
2019-04-07T04:32:06.569Z,7.3
2019-04-07T04:33:21.038Z,7.5
2019-04-07T04:34:35.022Z,7.5
2019-04-07T04:35:49.161Z,7.4
2019-04-07T04:37:04.565Z,7.5
2019-04-07T04:38:17.564Z,7.5
2019-04-07T04:39:31.779Z,7.5
2019-04-07T04:40:46.035Z,7.4
2019-04-07T04:42:00.193Z,7.5
2019-04-07T04:43:14.392Z,7.5
2019-04-07T04:44:28.610Z,7.4
2019-04-07T04:45:42.793Z,7.4
2019-04-07T04:46:56.997Z,7.5
2019-04-07T04:48:11.223Z,7.5
2019-04-07T04:49:25.409Z,7.3
2019-04-07T04:50:39.635Z,7.4
2019-04-07T04:51:53.840Z,7.4
2019-04-07T04:53:08.050Z,7.4
2019-04-07T04:54:22.253Z,7.5
2019-04-07T04:55:36.526Z,7.5
2019-04-07T04:56:50.821Z,7.5
2019-04-07T04:58:04.868Z,7.5
2019-04-07T04:59:19.065Z,7.5
2019-04-07T05:00:33.321Z,7.5
2019-04-07T05:01:47.475Z,7.5
2019-04-07T05:03:01.752Z,7.5
2019-04-07T05:04:15.985Z,7.4
2019-04-07T05:05:30.250Z,7.5
2019-04-07T05:06:44.329Z,7.5
2019-04-07T05:07:58.498Z,7.6
2019-04-07T05:09:12.696Z,7.6
2019-04-07T05:10:26.913Z,7.5
2019-04-07T05:11:41.221Z,7.6
2019-04-07T05:12:55.307Z,7.6
2019-04-07T05:14:09.507Z,7.6
2019-04-07T05:15:23.785Z,7.7
2019-04-07T05:16:38.004Z,7.7
2019-04-07T05:17:52.135Z,7.7
2019-04-07T05:19:06.384Z,7.7
2019-04-07T05:20:20.627Z,7.7
2019-04-07T05:21:35.128Z,7.7
2019-04-07T05:22:48.966Z,7.8
2019-04-07T05:24:03.282Z,7.7
2019-04-07T05:25:17.387Z,7.8
2019-04-07T05:26:31.609Z,7.8
2019-04-07T05:27:45.802Z,7.7
2019-04-07T05:29:00.091Z,7.8
2019-04-07T05:30:14.288Z,7.9
2019-04-07T05:31:28.400Z,7.9
2019-04-07T05:32:42.626Z,8
2019-04-07T05:33:56.820Z,7.9
2019-04-07T05:35:11.094Z,7.9
2019-04-07T05:36:25.262Z,8.1
2019-04-07T05:37:39.505Z,8.2
2019-04-07T05:38:53.679Z,8.1
2019-04-07T05:40:07.823Z,8.2
2019-04-07T05:41:22.020Z,8.2
2019-04-07T05:42:36.270Z,8.3
2019-04-07T05:43:50.469Z,8.6
2019-04-07T05:45:04.641Z,8.7
2019-04-07T05:46:18.951Z,8.8
2019-04-07T05:47:33.072Z,8.8
2019-04-07T05:48:47.288Z,9
2019-04-07T05:50:01.518Z,9.2
2019-04-07T05:51:15.840Z,9.5
2019-04-07T05:52:29.831Z,9.8
2019-04-07T05:53:44.031Z,10
2019-04-07T05:54:58.611Z,10.2
2019-04-07T05:56:12.392Z,10.4
2019-04-07T05:57:26.738Z,10.6
2019-04-07T05:58:40.803Z,10.8
2019-04-07T05:59:54.995Z,10.8
2019-04-07T06:01:09.224Z,11
2019-04-07T06:02:23.316Z,11.2
2019-04-07T06:03:37.504Z,11.3
2019-04-07T06:04:51.692Z,11.4
2019-04-07T06:06:06.018Z,11.6
2019-04-07T06:07:20.055Z,11.7
2019-04-07T06:08:34.262Z,11.8
2019-04-07T06:09:48.449Z,11.9
2019-04-07T06:11:02.584Z,12.1
2019-04-07T06:12:16.723Z,12.2
2019-04-07T06:13:31.232Z,12.4
2019-04-07T06:14:45.127Z,12.6
2019-04-07T06:15:59.239Z,12.7
2019-04-07T06:17:13.532Z,12.8
2019-04-07T06:18:27.612Z,13
2019-04-07T06:19:41.832Z,13.1
2019-04-07T06:20:56.071Z,13.4
2019-04-07T06:22:10.192Z,13.5
2019-04-07T06:23:24.330Z,13.5
2019-04-07T06:24:38.496Z,13.6
2019-04-07T06:25:52.624Z,13.7
2019-04-07T06:27:07.439Z,14
2019-04-07T06:28:21.095Z,14.1
2019-04-07T06:29:35.266Z,14.3
2019-04-07T06:30:49.243Z,14.6
2019-04-07T06:32:03.522Z,14.6
2019-04-07T06:33:18.726Z,14.8
2019-04-07T06:34:31.990Z,15
2019-04-07T06:35:45.918Z,15.1
2019-04-07T06:37:00.164Z,15
2019-04-07T06:38:14.261Z,15.2
2019-04-07T06:39:28.373Z,15.3
2019-04-07T06:40:42.535Z,15.4
2019-04-07T06:41:56.696Z,15.8
2019-04-07T06:43:10.938Z,15.7
2019-04-07T06:44:25.086Z,15.5
2019-04-07T06:45:39.155Z,15.5
2019-04-07T06:46:53.302Z,15.5
2019-04-07T06:48:07.677Z,15.4
2019-04-07T06:49:21.700Z,15.5
2019-04-07T06:50:35.803Z,15.4
2019-04-07T06:51:49.960Z,15.3
2019-04-07T06:53:04.084Z,15.4
2019-04-07T06:54:18.222Z,15.2
2019-04-07T06:55:32.352Z,15.2
2019-04-07T06:56:46.539Z,15.3
2019-04-07T06:58:00.621Z,15.3
2019-04-07T06:59:14.742Z,14.9
2019-04-07T07:00:28.974Z,15.3
2019-04-07T07:01:43.059Z,15.6
2019-04-07T07:02:57.186Z,15.3
2019-04-07T07:04:11.350Z,15.5
2019-04-07T07:05:25.433Z,15.9
2019-04-07T07:06:39.840Z,16.1
2019-04-07T07:07:53.726Z,16.1
2019-04-07T07:09:07.851Z,16.1
2019-04-07T07:10:22.043Z,16
2019-04-07T07:11:36.123Z,16.1
2019-04-07T07:12:50.293Z,16.2
2019-04-07T07:14:04.358Z,16.3
2019-04-07T07:15:18.567Z,16.5
2019-04-07T07:16:32.689Z,16.7
2019-04-07T07:17:46.775Z,16.6
2019-04-07T07:19:00.950Z,17.1
2019-04-07T07:20:15.001Z,16.8
2019-04-07T07:21:29.123Z,16.8
2019-04-07T07:22:43.248Z,17.2
2019-04-07T07:23:57.376Z,17.5
2019-04-07T07:25:12.192Z,17.4
2019-04-07T07:26:25.722Z,17.5
2019-04-07T07:27:39.804Z,17.2
2019-04-07T07:28:53.840Z,17.2
2019-04-07T07:30:08.003Z,17.7
2019-04-07T07:31:22.173Z,18.2
2019-04-07T07:32:36.209Z,18.2
2019-04-07T07:33:50.456Z,18
2019-04-07T07:35:04.611Z,18.4
2019-04-07T07:36:18.526Z,18.6
2019-04-07T07:37:32.648Z,18.3
2019-04-07T07:38:46.766Z,18.1
2019-04-07T07:40:00.875Z,18.1
2019-04-07T07:41:14.992Z,18.7
2019-04-07T07:42:29.257Z,19
2019-04-07T07:43:43.198Z,19.2
2019-04-07T07:44:57.316Z,18.6
2019-04-07T07:46:11.400Z,18.4
2019-04-07T07:47:25.658Z,18.5
2019-04-07T07:48:39.601Z,18.8
2019-04-07T07:49:53.801Z,18.7
2019-04-07T07:51:07.899Z,18.6
2019-04-07T07:52:22.142Z,18.6
2019-04-07T07:53:36.043Z,18.5
2019-04-07T07:54:50.221Z,18.4
2019-04-07T07:56:04.294Z,18.4
2019-04-07T07:57:18.366Z,18.5
2019-04-07T07:58:32.451Z,18.7
2019-04-07T07:59:47.085Z,18.4
2019-04-07T08:01:00.676Z,18.1
2019-04-07T08:02:14.817Z,17.8
2019-04-07T08:03:28.850Z,17.7
2019-04-07T08:04:42.995Z,18.2
2019-04-07T08:05:57.059Z,18.4
2019-04-07T08:07:11.165Z,18.3
2019-04-07T08:08:25.264Z,18.4
2019-04-07T08:09:39.406Z,18.6
2019-04-07T08:10:53.477Z,18.9
2019-04-07T08:12:07.542Z,19.5
2019-04-07T08:13:21.697Z,19.5
2019-04-07T08:14:35.758Z,19.4
2019-04-07T08:15:49.965Z,19
2019-04-07T08:17:03.948Z,19.2
2019-04-07T08:18:18.032Z,19.9
2019-04-07T08:19:32.132Z,20.3
2019-04-07T08:20:46.208Z,20.8
2019-04-07T08:22:00.413Z,19.9
2019-04-07T08:23:15.718Z,19.8
2019-04-07T08:24:28.483Z,20.1
2019-04-07T08:25:42.594Z,19.8
2019-04-07T08:26:56.639Z,19.9
2019-04-07T08:28:10.827Z,20.1
2019-04-07T08:29:24.855Z,20.1
2019-04-07T08:30:38.926Z,19.7
2019-04-07T08:31:53.041Z,19.8
2019-04-07T08:33:07.123Z,19.8
2019-04-07T08:34:21.205Z,20.2
2019-04-07T08:35:35.532Z,20
2019-04-07T08:36:49.422Z,20.4
2019-04-07T08:38:03.629Z,20
2019-04-07T08:39:17.585Z,19.5
2019-04-07T08:40:33.581Z,20.1
2019-04-07T08:41:45.734Z,20
2019-04-07T08:42:59.822Z,20
2019-04-07T08:44:13.914Z,20.2
2019-04-07T08:45:27.999Z,20.6
2019-04-07T08:46:42.093Z,20.4
2019-04-07T08:47:56.149Z,20.3
2019-04-07T08:49:10.229Z,20.3
2019-04-07T08:50:24.343Z,20.2
2019-04-07T08:51:38.432Z,20.3
2019-04-07T08:52:52.452Z,20.9
2019-04-07T08:54:06.581Z,20.8
2019-04-07T08:55:20.612Z,20.7
2019-04-07T08:56:34.752Z,21.1
2019-04-07T08:57:48.838Z,20.7
2019-04-07T08:59:02.832Z,20.5
2019-04-07T09:00:16.927Z,20.6
2019-04-07T09:01:31.000Z,20.7
2019-04-07T09:02:45.072Z,21
2019-04-07T09:03:59.122Z,21
2019-04-07T09:05:13.528Z,20.6
2019-04-07T09:06:27.289Z,21.3
2019-04-07T09:07:41.357Z,21.6
2019-04-07T09:08:55.451Z,21.6
2019-04-07T09:10:09.487Z,21.3
2019-04-07T09:11:23.564Z,21.2
2019-04-07T09:12:37.607Z,21
2019-04-07T09:13:51.672Z,21
2019-04-07T09:15:05.731Z,21.2
2019-04-07T09:16:19.809Z,21.4
2019-04-07T09:17:33.863Z,21.5
2019-04-07T09:18:47.934Z,21.1
2019-04-07T09:20:02.032Z,21.6
2019-04-07T09:21:16.129Z,21.7
2019-04-07T09:22:30.129Z,21.6
2019-04-07T09:23:44.233Z,21.6
2019-04-07T09:24:58.248Z,21.9
2019-04-07T09:26:12.284Z,21.9
2019-04-07T09:27:26.420Z,21.8
2019-04-07T09:28:40.410Z,22
2019-04-07T09:29:54.474Z,22.1
2019-04-07T09:31:08.551Z,22.1
2019-04-07T09:32:22.722Z,22.2
2019-04-07T09:33:36.653Z,22.3
2019-04-07T09:34:50.711Z,22.1
2019-04-07T09:36:04.956Z,21.8
2019-04-07T09:37:19.625Z,22.3
2019-04-07T09:38:32.861Z,23
2019-04-07T09:39:46.905Z,23.3
2019-04-07T09:41:00.958Z,23.3
2019-04-07T09:42:14.983Z,22.7
2019-04-07T09:43:29.039Z,23
2019-04-07T09:44:43.156Z,22.3
2019-04-07T09:45:57.110Z,22.4
2019-04-07T09:47:11.172Z,22
2019-04-07T09:48:25.300Z,21.8
2019-04-07T09:49:39.258Z,22.1
2019-04-07T09:50:53.388Z,21.9
2019-04-07T09:52:07.349Z,22
2019-04-07T09:53:21.660Z,22
2019-04-07T09:55:49.501Z,22
2019-04-07T09:57:03.526Z,22.1
2019-04-07T09:58:17.605Z,22
2019-04-07T09:59:31.747Z,21.5
2019-04-07T10:00:45.744Z,22.4
2019-04-07T10:01:59.846Z,22.3
2019-04-07T10:03:13.771Z,22.2
2019-04-07T10:04:27.806Z,22.3
2019-04-07T10:05:41.854Z,22
2019-04-07T10:06:56.248Z,22.2
2019-04-07T10:08:09.975Z,22.1
2019-04-07T10:09:24.002Z,21.8
2019-04-07T10:10:38.041Z,21.9
2019-04-07T10:11:52.158Z,21.9
2019-04-07T10:13:06.159Z,22
2019-04-07T10:14:20.268Z,22.5
2019-04-07T10:15:34.334Z,22.4
2019-04-07T10:16:48.377Z,22.6
2019-04-07T10:18:02.422Z,22.8
2019-04-07T10:19:16.405Z,22.6
2019-04-07T10:20:30.447Z,22.2
2019-04-07T10:21:44.525Z,21.6
2019-04-07T10:22:58.588Z,22
2019-04-07T10:24:12.712Z,22.5
2019-04-07T10:25:26.984Z,23.2
2019-04-07T10:26:40.695Z,23.1
2019-04-07T10:27:54.747Z,22.5
2019-04-07T10:29:08.799Z,22.6
2019-04-07T10:30:22.885Z,22.1
2019-04-07T10:31:36.903Z,22.1
2019-04-07T10:32:50.948Z,22.2
2019-04-07T10:34:05.033Z,22.7
2019-04-07T10:35:19.053Z,22.6
2019-04-07T10:36:33.507Z,22.3
2019-04-07T10:39:01.204Z,22.3
2019-04-07T10:40:15.235Z,22.4
2019-04-07T10:41:29.295Z,22.8
2019-04-07T10:42:43.359Z,22.6
2019-04-07T10:43:57.484Z,22.3
2019-04-07T10:45:11.429Z,22.8
2019-04-07T10:46:25.481Z,23.1
2019-04-07T10:47:39.621Z,22.5
2019-04-07T10:48:53.576Z,22.4
2019-04-07T10:50:07.679Z,22.9
2019-04-07T10:51:21.650Z,23
2019-04-07T10:52:35.722Z,23.1
2019-04-07T10:53:49.733Z,22.1
2019-04-07T10:55:03.769Z,22.4
2019-04-07T10:56:17.800Z,22.7
2019-04-07T10:57:31.989Z,22.5
2019-04-07T10:58:45.986Z,22.1
2019-04-07T10:59:59.985Z,22.6
2019-04-07T11:01:14.039Z,22.6
2019-04-07T11:02:27.982Z,22.9
2019-04-07T11:03:42.004Z,23.3
2019-04-07T11:04:56.100Z,23.9
2019-04-07T11:06:10.142Z,24
2019-04-07T11:07:24.142Z,23.4
2019-04-07T11:08:38.177Z,23.3
2019-04-07T11:09:52.215Z,23.4
2019-04-07T11:11:06.365Z,23.3
2019-04-07T11:12:20.343Z,23.1
2019-04-07T11:13:34.292Z,23.8
2019-04-07T11:14:48.334Z,23.5
2019-04-07T11:16:02.328Z,24.3
2019-04-07T11:17:16.386Z,24.2
2019-04-07T11:18:30.440Z,24.2
2019-04-07T11:19:44.547Z,25
2019-04-07T11:20:58.501Z,25.4
2019-04-07T11:22:12.515Z,24.1
2019-04-07T11:23:26.554Z,23.9
2019-04-07T11:24:40.608Z,24.2
2019-04-07T11:25:54.633Z,23.3
2019-04-07T11:27:08.691Z,21.9
2019-04-07T11:28:22.797Z,22.4
2019-04-07T11:29:36.791Z,22.7
2019-04-07T11:30:50.799Z,21.9
2019-04-07T11:32:04.871Z,21.6
2019-04-07T11:33:19.137Z,22
2019-04-07T11:34:32.964Z,21.8
2019-04-07T11:35:47.036Z,21.4
2019-04-07T11:37:01.108Z,21.1
2019-04-07T11:38:15.251Z,21.6
2019-04-07T11:39:29.261Z,20.9
2019-04-07T11:40:43.334Z,20.9
2019-04-07T11:41:57.533Z,22
2019-04-07T11:43:11.628Z,22.8
2019-04-07T11:44:25.535Z,23.1
2019-04-07T11:45:39.607Z,23.1
2019-04-07T11:46:53.663Z,23
2019-04-07T11:48:07.751Z,22.4
2019-04-07T11:49:21.808Z,23
2019-04-07T11:50:36.715Z,23.6
2019-04-07T11:51:49.900Z,24
2019-04-07T11:53:03.947Z,23.5
2019-04-07T11:54:18.027Z,23.4
2019-04-07T11:55:32.062Z,23.9
2019-04-07T11:56:46.270Z,24.6
2019-04-07T11:58:00.179Z,24
2019-04-07T11:59:14.287Z,23.3
2019-04-07T12:00:28.555Z,23.6
2019-04-07T12:01:42.351Z,23.4
2019-04-07T12:02:56.393Z,23.1
2019-04-07T12:04:10.448Z,23.4
2019-04-07T12:05:24.517Z,23.8
2019-04-07T12:06:38.542Z,23.5
2019-04-07T12:07:52.688Z,23.4
2019-04-07T12:09:06.738Z,23.5
2019-04-07T12:10:20.682Z,24.4
2019-04-07T12:11:34.715Z,24.9
2019-04-07T12:12:49.235Z,25.1
2019-04-07T12:14:02.855Z,24.5
2019-04-07T12:15:16.861Z,23.4
2019-04-07T12:16:30.872Z,23.2
2019-04-07T12:17:44.918Z,22.9
2019-04-07T12:18:58.972Z,23.1
2019-04-07T12:20:13.011Z,23.2
2019-04-07T12:21:27.101Z,23.2
2019-04-07T12:22:41.117Z,23.4
2019-04-07T12:23:55.172Z,23.6
2019-04-07T12:25:09.260Z,24.4
2019-04-07T12:26:23.385Z,24.4
2019-04-07T12:27:37.311Z,23.5
2019-04-07T12:28:51.388Z,22.7
2019-04-07T12:30:05.457Z,22.7
2019-04-07T12:31:19.446Z,23.5
2019-04-07T12:32:33.522Z,24.2
2019-04-07T12:33:47.594Z,24.4
2019-04-07T12:35:01.661Z,24.4
2019-04-07T12:36:15.888Z,24.4
2019-04-07T12:37:34.275Z,24.9
2019-04-07T12:38:43.762Z,25.5
2019-04-07T12:39:57.824Z,25.3
2019-04-07T12:41:11.910Z,24.6
2019-04-07T12:42:25.948Z,25
2019-04-07T12:43:39.982Z,26.4
2019-04-07T12:44:54.112Z,25.8
2019-04-07T12:46:08.160Z,24.9
2019-04-07T12:48:36.139Z,24.4
2019-04-07T12:49:50.275Z,24.4
2019-04-07T12:51:04.251Z,24.6
2019-04-07T12:52:19.250Z,24.3
2019-04-07T12:53:32.465Z,24.4
2019-04-07T12:54:48.547Z,24.2
2019-04-07T12:56:01.509Z,24.1
2019-04-07T12:57:14.522Z,24.5
2019-04-07T12:59:42.591Z,24
2019-04-07T13:00:56.669Z,24.4
2019-04-07T13:02:10.754Z,24.2
2019-04-07T13:03:24.802Z,23.7
2019-04-07T13:04:38.859Z,24.4
2019-04-07T13:05:52.897Z,25.2
2019-04-07T13:07:08.205Z,25.8
2019-04-07T13:08:21.027Z,25.9
2019-04-07T13:09:35.045Z,24.7
2019-04-07T13:10:49.097Z,24.7
2019-04-07T13:12:03.227Z,24.7
2019-04-07T13:13:17.322Z,24
2019-04-07T13:14:31.354Z,22.4
2019-04-07T13:15:45.429Z,22.4
2019-04-07T13:16:59.428Z,23.1
2019-04-07T13:18:13.477Z,23.9
2019-04-07T13:19:30.697Z,24.3
2019-04-07T13:20:41.822Z,24.9
2019-04-07T13:21:55.684Z,24.4
2019-04-07T13:23:09.739Z,23.9
2019-04-07T13:24:23.803Z,23
2019-04-07T13:25:37.870Z,22.4
2019-04-07T13:26:52.014Z,21.9
2019-04-07T13:28:06.008Z,22.4
2019-04-07T13:29:20.154Z,23.2
2019-04-07T13:30:34.173Z,24.3
2019-04-07T13:31:48.231Z,22.9
2019-04-07T13:33:02.474Z,23.3
2019-04-07T13:34:16.411Z,22.5
2019-04-07T13:35:30.458Z,23
2019-04-07T13:36:44.818Z,23.7
2019-04-07T13:37:58.661Z,23.5
2019-04-07T13:39:12.708Z,22.6
2019-04-07T13:40:26.773Z,23
2019-04-07T13:41:40.897Z,23.1
2019-04-07T13:42:55.022Z,23.3
2019-04-07T13:44:09.043Z,24.1
2019-04-07T13:45:23.092Z,24.3
2019-04-07T13:46:37.178Z,22.5
2019-04-07T13:47:51.555Z,22.4
2019-04-07T13:49:05.393Z,23.4
2019-04-07T13:50:19.430Z,23.5
2019-04-07T13:51:33.524Z,24
2019-04-07T13:52:47.693Z,23.4
2019-04-07T13:54:01.859Z,23.5
2019-04-07T13:55:15.815Z,23.7
2019-04-07T13:56:29.964Z,23.6
2019-04-07T13:57:43.971Z,24.4
2019-04-07T13:58:58.127Z,24.5
2019-04-07T14:00:12.128Z,24.6
2019-04-07T14:01:26.213Z,24.8
2019-04-07T14:02:43.411Z,24.9
2019-04-07T14:03:56.188Z,25.2
2019-04-07T14:05:08.488Z,24.2
2019-04-07T14:06:22.456Z,24.5
2019-04-07T14:07:36.577Z,24.8
2019-04-07T14:08:50.675Z,24.2
2019-04-07T14:10:04.673Z,23.2
2019-04-07T14:11:19.248Z,23.2
2019-04-07T14:12:32.889Z,23.4
2019-04-07T14:13:46.908Z,23.2
2019-04-07T14:15:00.936Z,23.5
2019-04-07T14:16:15.032Z,23.8
2019-04-07T14:17:29.093Z,24.5
2019-04-07T14:18:43.171Z,24.9
2019-04-07T14:19:57.486Z,24.4
2019-04-07T14:21:11.302Z,24.6
2019-04-07T14:22:25.523Z,24.1
2019-04-07T14:23:39.436Z,24.3
2019-04-07T14:24:53.525Z,24.1
2019-04-07T14:26:07.656Z,24.2
2019-04-07T14:27:21.769Z,24.9
2019-04-07T14:28:35.744Z,25.5
2019-04-07T14:29:49.816Z,24.8
2019-04-07T14:31:03.886Z,24.2
2019-04-07T14:32:17.913Z,24.3
2019-04-07T14:33:31.967Z,23.6
2019-04-07T14:34:46.050Z,22.3
2019-04-07T14:36:00.128Z,21.9
2019-04-07T14:37:14.590Z,21.8
2019-04-07T14:38:28.296Z,22.6
2019-04-07T14:39:42.350Z,23.1
2019-04-07T14:40:56.455Z,24
2019-04-07T14:42:10.533Z,23.5
2019-04-07T14:43:24.623Z,23.2
2019-04-07T14:44:38.662Z,22.5
2019-04-07T14:45:52.773Z,22.9
2019-04-07T14:47:06.881Z,21.8
2019-04-07T14:48:20.991Z,22
2019-04-07T14:49:35.108Z,21.9
2019-04-07T14:50:49.109Z,22.2
2019-04-07T14:52:03.197Z,23.3
2019-04-07T14:53:17.291Z,23.8
2019-04-07T14:54:31.362Z,23.9
2019-04-07T14:55:49.112Z,24
2019-04-07T14:57:01.122Z,24.7
2019-04-07T14:58:13.869Z,23.9
2019-04-07T14:59:27.684Z,23
2019-04-07T15:00:41.811Z,23.2
2019-04-07T15:01:56.247Z,23.4
2019-04-07T15:03:09.994Z,23.3
2019-04-07T15:04:23.984Z,23.3
2019-04-07T15:05:38.051Z,23.3
2019-04-07T15:06:52.137Z,23.2
2019-04-07T15:08:06.189Z,22.4
2019-04-07T15:09:20.344Z,22.2
2019-04-07T15:10:34.390Z,22.8
2019-04-07T15:11:48.506Z,22.9
2019-04-07T15:13:02.556Z,23.4
2019-04-07T15:14:16.639Z,23.3
2019-04-07T15:15:30.777Z,23
2019-04-07T15:16:44.860Z,22.9
2019-04-07T15:17:58.925Z,22.8
2019-04-07T15:19:12.972Z,22.8
2019-04-07T15:20:27.109Z,23.4
2019-04-07T15:21:41.254Z,23.6
2019-04-07T15:22:55.262Z,23.3
2019-04-07T15:24:09.322Z,23.3
2019-04-07T15:25:23.397Z,23.5
2019-04-07T15:26:37.512Z,23
2019-04-07T15:27:51.595Z,23.2
2019-04-07T15:29:05.749Z,23.3
2019-04-07T15:30:19.739Z,23.1
2019-04-07T15:31:33.881Z,22.3
2019-04-07T15:32:47.999Z,22.2
2019-04-07T15:34:01.998Z,22.6
2019-04-07T15:35:16.146Z,23.1
2019-04-07T15:36:30.302Z,23.5
2019-04-07T15:37:44.272Z,23.1
2019-04-07T15:38:58.341Z,23
2019-04-07T15:40:12.439Z,23
2019-04-07T15:41:26.636Z,22.9
2019-04-07T15:42:40.601Z,22.9
2019-04-07T15:43:54.664Z,22.7
2019-04-07T15:45:08.807Z,22.5
2019-04-07T15:46:22.834Z,22.9
2019-04-07T15:47:36.896Z,22.8
2019-04-07T15:48:51.045Z,23.1
2019-04-07T15:50:05.073Z,22.3
2019-04-07T15:51:19.205Z,22.6
2019-04-07T15:52:33.284Z,22.4
2019-04-07T15:53:47.354Z,22.5
2019-04-07T15:55:01.451Z,22.3
2019-04-07T15:56:15.664Z,22.3
2019-04-07T15:57:29.642Z,22.5
2019-04-07T15:58:43.796Z,22.4
2019-04-07T15:59:57.911Z,22.2
2019-04-07T16:01:12.064Z,22.4
2019-04-07T16:02:26.004Z,22.5
2019-04-07T16:03:40.209Z,22.6
2019-04-07T16:04:54.348Z,22.3
2019-04-07T16:06:08.296Z,21.6
2019-04-07T16:07:22.397Z,21.8
2019-04-07T16:08:36.549Z,21.8
2019-04-07T16:09:50.557Z,21.5
2019-04-07T16:11:04.787Z,21
2019-04-07T16:12:18.770Z,20.6
2019-04-07T16:13:32.892Z,20.4
2019-04-07T16:14:46.983Z,20.3
2019-04-07T16:16:01.110Z,20.3
2019-04-07T16:17:15.195Z,20.2
2019-04-07T16:18:29.318Z,20.3
2019-04-07T16:19:43.445Z,20.4
2019-04-07T16:20:57.560Z,20.3
2019-04-07T16:22:11.667Z,20.2
2019-04-07T16:23:25.804Z,20.1
2019-04-07T16:24:40.081Z,20.2
2019-04-07T16:27:08.255Z,20.3
2019-04-07T16:28:22.287Z,20.4
2019-04-07T16:29:36.444Z,20.4
2019-04-07T16:30:50.516Z,20.3
2019-04-07T16:32:04.634Z,20.2
2019-04-07T16:33:18.762Z,20
2019-04-07T16:34:32.940Z,19.9
2019-04-07T16:35:47.014Z,20
2019-04-07T16:37:01.159Z,19.9
2019-04-07T16:38:15.310Z,19.9
2019-04-07T16:39:29.384Z,19.8
2019-04-07T16:40:43.593Z,19.7
2019-04-07T16:41:57.651Z,19.6
2019-04-07T16:43:11.784Z,19.6
2019-04-07T16:44:25.916Z,19.6
2019-04-07T16:45:40.263Z,19.5
2019-04-07T16:46:54.203Z,19.5
2019-04-07T16:49:22.533Z,19.5
2019-04-07T16:50:36.671Z,19.4